Aigle Des Mers — FO4883 — position and weather

sailwx.info

Track history (hours):
 
Tides and Currents Weather Stations Pressure Air Temp Water Temp Dewpoint Dewpoint Depression Visibility Wind Speed Wind Dir Waves Ship Positions

Aigle Des Mers

Last reported at 2015-Mar-26 00:33 UTC. Time now 2015-Mar-30 16:21 UTC.
Position N 48°06' W 004°19'.

Type: Fishing. MMSI: 227318010.

Date/timePositionNaut miles runAvg speedWind from/ knotsBaromVisibWave heightAir tempDewpointWater temp
2015-Mar-26 00:33N 48°06' W 004°19'4 3.9
2015-Mar-25 23:33N 48°09' W 004°22'4 4.0
2015-Mar-25 22:33N 48°11' W 004°27'3 2.6
2015-Mar-25 21:33N 48°08' W 004°27'2 1.7
2015-Mar-25 20:33N 48°09' W 004°30'0 0.1
2015-Mar-25 19:34N 48°09' W 004°29'0 0.5
2015-Mar-25 18:34N 48°09' W 004°30'8 5.5
2015-Mar-25 17:06N 48°06' W 004°19'0 0.0
2015-Mar-25 09:27N 48°06' W 004°19'0 0.0
2015-Mar-25 08:29N 48°06' W 004°19'0 0.0
2015-Mar-25 07:33N 48°06' W 004°19'0 0.0
2015-Mar-25 06:32N 48°06' W 004°19'0 0.0
2015-Mar-25 05:32N 48°06' W 004°19'0 0.0
2015-Mar-25 04:33N 48°06' W 004°19'0 0.0
2015-Mar-25 03:04N 48°06' W 004°19'0 0.0
2015-Mar-25 02:26N 48°06' W 004°19'0 0.0
2015-Mar-25 01:24N 48°06' W 004°19'0 0.0
2015-Mar-25 00:31N 48°06' W 004°19'0 0.0
2015-Mar-24 23:33N 48°06' W 004°19'0 0.0
2015-Mar-24 22:32N 48°06' W 004°19'4 4.5
2015-Mar-24 21:34N 48°09' W 004°23'5 5.2
2015-Mar-24 20:33N 48°12' W 004°30'2 2.1
2015-Mar-24 19:34N 48°12' W 004°27'1 0.6
2015-Mar-24 18:34N 48°11' W 004°26'1 0.8
2015-Mar-24 17:33N 48°12' W 004°26'6 5.8
2015-Mar-24 16:33N 48°07' W 004°20'2 0.1
2015-Mar-23 23:05N 48°06' W 004°19'4 6.9
2015-Mar-23 22:34N 48°08' W 004°23'6 5.8
2015-Mar-23 21:34N 48°11' W 004°31'2 2.5
2015-Mar-23 20:33N 48°12' W 004°27'7 6.8
2015-Mar-23 19:34N 48°08' W 004°36'3 3.4
2015-Mar-23 18:33N 48°08' W 004°41'8 7.6
2015-Mar-23 17:33N 48°12' W 004°51'7 7.3
2015-Mar-23 16:33N 48°14' W 004°40'5 4.7
2015-Mar-23 15:33N 48°10' W 004°36'5 4.7
2015-Mar-23 14:34N 48°06' W 004°35'6 5.7
2015-Mar-23 13:33N 48°07' W 004°27'5 0.3
2015-Mar-22 23:33N 48°06' W 004°19'5 4.6
2015-Mar-22 22:33N 48°10' W 004°23'4 4.0
2015-Mar-22 21:33N 48°11' W 004°28'0 0.5
2015-Mar-22 20:34N 48°12' W 004°28'1 1.1
2015-Mar-22 19:33N 48°11' W 004°27'2 1.8
2015-Mar-22 18:33N 48°09' W 004°29'1 0.9
2015-Mar-22 17:33N 48°09' W 004°28'6 6.2
2015-Mar-22 16:33N 48°07' W 004°19'  
2015-Mar-18 20:19N 48°06' W 004°19'5 6.3
2015-Mar-18 19:34N 48°09' W 004°24'5 5.5
2015-Mar-18 18:33N 48°08' W 004°32'0 0.3
2015-Mar-18 17:33N 48°08' W 004°33'5 5.2
2015-Mar-18 16:33N 48°08' W 004°25'4 0.2
2015-Mar-17 23:22N 48°06' W 004°19'5 6.0
2015-Mar-17 22:33N 48°11' W 004°18'8 7.7
2015-Mar-17 21:33N 48°09' W 004°30'9 8.5
2015-Mar-17 20:34N 48°10' W 004°42'5 5.2
2015-Mar-17 19:34N 48°14' W 004°48'4 4.0
2015-Mar-17 18:33N 48°13' W 004°42'6 6.0
2015-Mar-17 17:34N 48°09' W 004°35'10 9.6
2015-Mar-17 16:33N 48°07' W 004°21'2 0.1
2015-Mar-16 23:25N 48°06' W 004°19'1 1.4
2015-Mar-16 22:33N 48°07' W 004°19'2 1.5
2015-Mar-16 21:33N 48°08' W 004°21'6 6.3
2015-Mar-16 20:34N 48°09' W 004°30'6 6.0
2015-Mar-16 19:34N 48°08' W 004°39'1 0.9
2015-Mar-16 18:33N 48°07' W 004°39'4 3.5
2015-Mar-16 17:33N 48°05' W 004°34'10 8.7
2015-Mar-16 16:25N 48°06' W 004°19'0 0.0
2015-Mar-16 00:34N 48°06' W 004°19'  
Track history (hours):
 
Tides and Currents Weather Stations Pressure Air Temp Water Temp Dewpoint Dewpoint Depression Visibility Wind Speed Wind Dir Waves Ship Positions

Aigle Des Mers

Last reported at 2015-Mar-26 00:33 UTC. Time now 2015-Mar-30 16:21 UTC.
Position N 48°06' W 004°19'.

Type: Fishing. MMSI: 227318010.

Date/timePositionNaut miles runAvg speedWind from/ knotsBaromVisibWave heightAir tempDewpointWater temp
2015-Mar-26 00:33N 48°06' W 004°19'4 3.9
2015-Mar-25 23:33N 48°09' W 004°22'4 4.0
2015-Mar-25 22:33N 48°11' W 004°27'3 2.6
2015-Mar-25 21:33N 48°08' W 004°27'2 1.7
2015-Mar-25 20:33N 48°09' W 004°30'0 0.1
2015-Mar-25 19:34N 48°09' W 004°29'0 0.5
2015-Mar-25 18:34N 48°09' W 004°30'8 5.5
2015-Mar-25 17:06N 48°06' W 004°19'0 0.0
2015-Mar-25 09:27N 48°06' W 004°19'0 0.0
2015-Mar-25 08:29N 48°06' W 004°19'0 0.0
2015-Mar-25 07:33N 48°06' W 004°19'0 0.0
2015-Mar-25 06:32N 48°06' W 004°19'0 0.0
2015-Mar-25 05:32N 48°06' W 004°19'0 0.0
2015-Mar-25 04:33N 48°06' W 004°19'0 0.0
2015-Mar-25 03:04N 48°06' W 004°19'0 0.0
2015-Mar-25 02:26N 48°06' W 004°19'0 0.0
2015-Mar-25 01:24N 48°06' W 004°19'0 0.0
2015-Mar-25 00:31N 48°06' W 004°19'0 0.0
2015-Mar-24 23:33N 48°06' W 004°19'0 0.0
2015-Mar-24 22:32N 48°06' W 004°19'4 4.5
2015-Mar-24 21:34N 48°09' W 004°23'5 5.2
2015-Mar-24 20:33N 48°12' W 004°30'2 2.1
2015-Mar-24 19:34N 48°12' W 004°27'1 0.6
2015-Mar-24 18:34N 48°11' W 004°26'1 0.8
2015-Mar-24 17:33N 48°12' W 004°26'6 5.8
2015-Mar-24 16:33N 48°07' W 004°20'2 0.1
2015-Mar-23 23:05N 48°06' W 004°19'4 6.9
2015-Mar-23 22:34N 48°08' W 004°23'6 5.8
2015-Mar-23 21:34N 48°11' W 004°31'2 2.5
2015-Mar-23 20:33N 48°12' W 004°27'7 6.8
2015-Mar-23 19:34N 48°08' W 004°36'3 3.4
2015-Mar-23 18:33N 48°08' W 004°41'8 7.6
2015-Mar-23 17:33N 48°12' W 004°51'7 7.3
2015-Mar-23 16:33N 48°14' W 004°40'5 4.7
2015-Mar-23 15:33N 48°10' W 004°36'5 4.7
2015-Mar-23 14:34N 48°06' W 004°35'6 5.7
2015-Mar-23 13:33N 48°07' W 004°27'5 0.3
2015-Mar-22 23:33N 48°06' W 004°19'5 4.6
2015-Mar-22 22:33N 48°10' W 004°23'4 4.0
2015-Mar-22 21:33N 48°11' W 004°28'0 0.5
2015-Mar-22 20:34N 48°12' W 004°28'1 1.1
2015-Mar-22 19:33N 48°11' W 004°27'2 1.8
2015-Mar-22 18:33N 48°09' W 004°29'1 0.9
2015-Mar-22 17:33N 48°09' W 004°28'6 6.2
2015-Mar-22 16:33N 48°07' W 004°19'  
2015-Mar-18 20:19N 48°06' W 004°19'5 6.3
2015-Mar-18 19:34N 48°09' W 004°24'5 5.5
2015-Mar-18 18:33N 48°08' W 004°32'0 0.3
2015-Mar-18 17:33N 48°08' W 004°33'5 5.2
2015-Mar-18 16:33N 48°08' W 004°25'4 0.2
2015-Mar-17 23:22N 48°06' W 004°19'5 6.0
2015-Mar-17 22:33N 48°11' W 004°18'8 7.7
2015-Mar-17 21:33N 48°09' W 004°30'9 8.5
2015-Mar-17 20:34N 48°10' W 004°42'5 5.2
2015-Mar-17 19:34N 48°14' W 004°48'4 4.0
2015-Mar-17 18:33N 48°13' W 004°42'6 6.0
2015-Mar-17 17:34N 48°09' W 004°35'10 9.6
2015-Mar-17 16:33N 48°07' W 004°21'2 0.1
2015-Mar-16 23:25N 48°06' W 004°19'1 1.4
2015-Mar-16 22:33N 48°07' W 004°19'2 1.5
2015-Mar-16 21:33N 48°08' W 004°21'6 6.3
2015-Mar-16 20:34N 48°09' W 004°30'6 6.0
2015-Mar-16 19:34N 48°08' W 004°39'1 0.9
2015-Mar-16 18:33N 48°07' W 004°39'4 3.5
2015-Mar-16 17:33N 48°05' W 004°34'10 8.7
2015-Mar-16 16:25N 48°06' W 004°19'0 0.0
2015-Mar-16 00:34N 48°06' W 004°19'  

Dump ship's entire track history